sensor_id;sensor_type;location;lat;lon;timestamp;pressure;altitude;pressure_sealevel;temperature;humidity
32759;BME280;19125;52.360;9.974;2023-05-10T00:00:09;86000.72;;;-145.17;39.57
32759;BME280;19125;52.360;9.974;2023-05-10T00:02:35;85998.75;;;-145.17;39.57
32759;BME280;19125;52.360;9.974;2023-05-10T00:05:01;86004.69;;;-145.17;39.71
32759;BME280;19125;52.360;9.974;2023-05-10T00:07:26;86008.66;;;-145.17;39.94
32759;BME280;19125;52.360;9.974;2023-05-10T00:09:51;86016.59;;;-145.17;40.17
32759;BME280;19125;52.360;9.974;2023-05-10T00:12:17;85972.94;;;-145.17;39.98
32759;BME280;19125;52.360;9.974;2023-05-10T00:14:42;86002.72;;;-145.17;40.17
32759;BME280;19125;52.360;9.974;2023-05-10T00:17:07;86032.47;;;-145.17;40.26
32759;BME280;19125;52.360;9.974;2023-05-10T00:19:33;86060.25;;;-145.17;40.20
32759;BME280;19125;52.360;9.974;2023-05-10T00:21:58;86032.47;;;-145.17;40.47
32759;BME280;19125;52.360;9.974;2023-05-10T00:24:23;86054.31;;;-145.17;40.61
32759;BME280;19125;52.360;9.974;2023-05-10T00:26:48;86080.09;;;-145.17;40.88
32759;BME280;19125;52.360;9.974;2023-05-10T00:29:14;86036.44;;;-145.17;40.89
32759;BME280;19125;52.360;9.974;2023-05-10T00:31:39;86076.13;;;-145.17;41.18
32759;BME280;19125;52.360;9.974;2023-05-10T00:34:04;86074.16;;;-145.17;41.59
32759;BME280;19125;52.360;9.974;2023-05-10T00:36:30;86054.31;;;-145.17;41.87
32759;BME280;19125;52.360;9.974;2023-05-10T00:38:56;86054.31;;;-145.17;41.90
32759;BME280;19125;52.360;9.974;2023-05-10T00:41:21;86072.16;;;-145.17;42.17
32759;BME280;19125;52.360;9.974;2023-05-10T00:43:46;86076.13;;;-145.17;42.43
32759;BME280;19125;52.360;9.974;2023-05-10T00:46:14;86101.94;;;-145.17;42.59
32759;BME280;19125;52.360;9.974;2023-05-10T00:48:40;86095.97;;;-145.17;42.98
32759;BME280;19125;52.360;9.974;2023-05-10T00:51:06;86115.81;;;-145.17;43.77
32759;BME280;19125;52.360;9.974;2023-05-10T00:53:32;86113.84;;;-145.17;44.33
32759;BME280;19125;52.360;9.974;2023-05-10T00:55:58;86157.50;;;-145.17;44.76
32759;BME280;19125;52.360;9.974;2023-05-10T00:58:24;86113.84;;;-145.17;44.95
32759;BME280;19125;52.360;9.974;2023-05-10T01:00:54;86147.56;;;-145.17;45.03
32759;BME280;19125;52.360;9.974;2023-05-10T01:03:20;86165.44;;;-145.17;45.42
32759;BME280;19125;52.360;9.974;2023-05-10T01:05:46;86191.22;;;-145.17;45.64
32759;BME280;19125;52.360;9.974;2023-05-10T01:08:11;86195.19;;;-145.17;45.54
32759;BME280;19125;52.360;9.974;2023-05-10T01:10:36;86197.19;;;-145.17;45.55
32759;BME280;19125;52.360;9.974;2023-05-10T01:13:02;86179.31;;;-145.17;45.46
32759;BME280;19125;52.360;9.974;2023-05-10T01:15:28;86197.19;;;-145.17;45.28
32759;BME280;19125;52.360;9.974;2023-05-10T01:17:55;86165.44;;;-145.17;45.82
32759;BME280;19125;52.360;9.974;2023-05-10T01:20:21;86179.31;;;-145.17;45.63
32759;BME280;19125;52.360;9.974;2023-05-10T01:31:30;86232.91;;;-145.17;46.29
32759;BME280;19125;52.360;9.974;2023-05-10T01:34:17;86219.00;;;-145.17;46.44
32759;BME280;19125;52.360;9.974;2023-05-10T01:36:51;86213.06;;;-145.17;46.54
32759;BME280;19125;52.360;9.974;2023-05-10T01:39:24;86209.09;;;-145.17;46.72
32759;BME280;19125;52.360;9.974;2023-05-10T01:42:03;86224.97;;;-145.17;46.79
32759;BME280;19125;52.360;9.974;2023-05-10T01:44:37;86217.03;;;-145.17;46.86
32759;BME280;19125;52.360;9.974;2023-05-10T01:49:34;86222.97;;;-145.17;47.04
32759;BME280;19125;52.360;9.974;2023-05-10T01:52:12;86226.94;;;-145.17;47.08
32759;BME280;19125;52.360;9.974;2023-05-10T01:54:43;86240.84;;;-145.17;46.92
32759;BME280;19125;52.360;9.974;2023-05-10T01:57:09;86199.16;;;-145.17;47.15
32759;BME280;19125;52.360;9.974;2023-05-10T01:59:39;86201.16;;;-145.17;47.05
32759;BME280;19125;52.360;9.974;2023-05-10T02:02:06;86191.22;;;-145.17;47.21
32759;BME280;19125;52.360;9.974;2023-05-10T02:04:35;86189.25;;;-145.17;47.15
32759;BME280;19125;52.360;9.974;2023-05-10T02:07:03;86254.72;;;-145.17;47.30
32759;BME280;19125;52.360;9.974;2023-05-10T02:09:30;86244.81;;;-145.17;47.51
32759;BME280;19125;52.360;9.974;2023-05-10T02:11:59;86272.59;;;-145.17;47.80
32759;BME280;19125;52.360;9.974;2023-05-10T02:14:28;86248.78;;;-145.17;47.89
32759;BME280;19125;52.360;9.974;2023-05-10T02:16:56;86306.31;;;-145.17;48.18
32759;BME280;19125;52.360;9.974;2023-05-10T02:19:23;86294.41;;;-145.17;48.35
32759;BME280;19125;52.360;9.974;2023-05-10T02:21:50;86296.41;;;-145.17;48.81
32759;BME280;19125;52.360;9.974;2023-05-10T02:24:18;86326.16;;;-145.17;48.99
32759;BME280;19125;52.360;9.974;2023-05-10T02:26:44;86316.25;;;-145.17;49.42
32759;BME280;19125;52.360;9.974;2023-05-10T02:29:11;86320.22;;;-145.17;49.39
32759;BME280;19125;52.360;9.974;2023-05-10T02:31:37;86334.09;;;-145.17;49.40
32759;BME280;19125;52.360;9.974;2023-05-10T02:34:04;86342.03;;;-145.17;49.76
32759;BME280;19125;52.360;9.974;2023-05-10T02:36:31;86306.31;;;-145.17;49.61
32759;BME280;19125;52.360;9.974;2023-05-10T02:38:59;86351.97;;;-145.17;49.78
32759;BME280;19125;52.360;9.974;2023-05-10T02:41:26;86314.25;;;-145.17;49.61
32759;BME280;19125;52.360;9.974;2023-05-10T02:43:56;86334.09;;;-145.17;49.64
32759;BME280;19125;52.360;9.974;2023-05-10T02:46:23;86310.28;;;-145.17;49.74
32759;BME280;19125;52.360;9.974;2023-05-10T02:48:48;86332.13;;;-145.17;49.84
32759;BME280;19125;52.360;9.974;2023-05-10T02:51:16;86306.31;;;-145.17;49.68
32759;BME280;19125;52.360;9.974;2023-05-10T02:53:44;86332.13;;;-145.17;49.95
32759;BME280;19125;52.360;9.974;2023-05-10T02:56:20;86314.25;;;-145.17;49.74
32759;BME280;19125;52.360;9.974;2023-05-10T02:58:48;86342.03;;;-145.17;49.71
32759;BME280;19125;52.360;9.974;2023-05-10T03:01:14;86322.19;;;-145.17;49.82
32759;BME280;19125;52.360;9.974;2023-05-10T03:03:39;86328.16;;;-145.17;49.92
32759;BME280;19125;52.360;9.974;2023-05-10T03:06:06;86351.97;;;-145.17;49.76
32759;BME280;19125;52.360;9.974;2023-05-10T03:08:31;86342.03;;;-145.17;49.92
32759;BME280;19125;52.360;9.974;2023-05-10T03:13:52;86308.31;;;-145.17;49.74
32759;BME280;19125;52.360;9.974;2023-05-10T03:16:25;86340.06;;;-145.17;50.02
32759;BME280;19125;52.360;9.974;2023-05-10T03:19:02;86349.97;;;-145.17;49.68
32759;BME280;19125;52.360;9.974;2023-05-10T03:21:31;86346.00;;;-145.17;49.91
32759;BME280;19125;52.360;9.974;2023-05-10T03:24:07;86334.09;;;-145.17;49.85
32759;BME280;19125;52.360;9.974;2023-05-10T03:26:34;86328.16;;;-145.17;49.82
32759;BME280;19125;52.360;9.974;2023-05-10T03:29:00;86314.25;;;-145.17;49.57
32759;BME280;19125;52.360;9.974;2023-05-10T03:31:26;86290.44;;;-145.17;49.54
32759;BME280;19125;52.360;9.974;2023-05-10T03:33:52;86282.50;;;-145.17;49.27
32759;BME280;19125;52.360;9.974;2023-05-10T03:36:18;86296.41;;;-145.17;49.35
32759;BME280;19125;52.360;9.974;2023-05-10T03:38:44;86264.66;;;-145.17;49.44
32759;BME280;19125;52.360;9.974;2023-05-10T03:41:09;86286.47;;;-145.17;49.59
32759;BME280;19125;52.360;9.974;2023-05-10T03:43:35;86280.53;;;-145.17;49.78
32759;BME280;19125;52.360;9.974;2023-05-10T03:46:04;86264.66;;;-145.17;50.00
32759;BME280;19125;52.360;9.974;2023-05-10T03:48:30;86296.41;;;-145.17;50.31
32759;BME280;19125;52.360;9.974;2023-05-10T03:50:56;86290.44;;;-145.17;50.33
32759;BME280;19125;52.360;9.974;2023-05-10T03:53:22;86310.28;;;-145.17;50.69
32759;BME280;19125;52.360;9.974;2023-05-10T03:55:48;86349.97;;;-145.17;50.81
32759;BME280;19125;52.360;9.974;2023-05-10T03:58:13;86302.34;;;-145.17;51.13
32759;BME280;19125;52.360;9.974;2023-05-10T04:00:38;86246.78;;;-145.17;50.94
32759;BME280;19125;52.360;9.974;2023-05-10T04:03:09;86262.66;;;-145.17;50.51
32759;BME280;19125;52.360;9.974;2023-05-10T04:05:34;86217.03;;;-145.17;49.98
32759;BME280;19125;52.360;9.974;2023-05-10T04:08:00;86203.13;;;-145.17;49.43
32759;BME280;19125;52.360;9.974;2023-05-10T04:10:25;86217.03;;;-145.17;49.61
32759;BME280;19125;52.360;9.974;2023-05-10T04:12:50;86211.06;;;-145.17;49.82
32759;BME280;19125;52.360;9.974;2023-05-10T04:15:16;86236.88;;;-145.17;50.03
32759;BME280;19125;52.360;9.974;2023-05-10T04:17:41;86234.88;;;-145.17;50.38
32759;BME280;19125;52.360;9.974;2023-05-10T04:20:07;86258.69;;;-145.17;50.42
32759;BME280;19125;52.360;9.974;2023-05-10T04:22:33;86298.38;;;-145.17;50.99
32759;BME280;19125;52.360;9.974;2023-05-10T04:24:59;86300.38;;;-145.17;50.99
32759;BME280;19125;52.360;9.974;2023-05-10T04:27:24;86316.25;;;-145.17;51.41
32759;BME280;19125;52.360;9.974;2023-05-10T04:29:50;86328.16;;;-145.17;51.70
32759;BME280;19125;52.360;9.974;2023-05-10T04:32:15;86318.22;;;-145.17;51.96
32759;BME280;19125;52.360;9.974;2023-05-10T04:34:43;86355.94;;;-145.17;52.27
32759;BME280;19125;52.360;9.974;2023-05-10T04:37:08;86359.91;;;-145.17;52.42
32759;BME280;19125;52.360;9.974;2023-05-10T04:39:33;86405.53;;;-145.17;52.61
32759;BME280;19125;52.360;9.974;2023-05-10T04:42:00;86353.94;;;-145.17;52.85
32759;BME280;19125;52.360;9.974;2023-05-10T04:44:25;86429.34;;;-145.17;53.25
32759;BME280;19125;52.360;9.974;2023-05-10T04:46:51;86465.09;;;-145.17;53.74
32759;BME280;19125;52.360;9.974;2023-05-10T04:49:16;86463.09;;;-145.17;54.00
32759;BME280;19125;52.360;9.974;2023-05-10T04:51:42;86508.75;;;-145.17;54.53
32759;BME280;19125;52.360;9.974;2023-05-10T04:54:08;86512.72;;;-145.17;54.64
32759;BME280;19125;52.360;9.974;2023-05-10T04:56:33;86522.63;;;-145.17;54.99
32759;BME280;19125;52.360;9.974;2023-05-10T04:58:59;86556.38;;;-145.17;55.39
32759;BME280;19125;52.360;9.974;2023-05-10T05:01:25;86588.13;;;-145.17;55.90
32759;BME280;19125;52.360;9.974;2023-05-10T05:03:51;86629.81;;;-145.17;56.22
32759;BME280;19125;52.360;9.974;2023-05-10T05:06:18;86633.78;;;-145.17;56.21
32759;BME280;19125;52.360;9.974;2023-05-10T05:08:43;86681.41;;;-145.17;56.46
32759;BME280;19125;52.360;9.974;2023-05-10T05:11:10;86641.72;;;-145.17;55.96
32759;BME280;19125;52.360;9.974;2023-05-10T05:13:35;86633.78;;;-145.17;56.35
32759;BME280;19125;52.360;9.974;2023-05-10T05:16:02;86584.16;;;-145.17;56.16
32759;BME280;19125;52.360;9.974;2023-05-10T05:18:27;86615.91;;;-145.17;55.93
32759;BME280;19125;52.360;9.974;2023-05-10T05:20:53;86592.09;;;-145.17;56.02
32759;BME280;19125;52.360;9.974;2023-05-10T05:23:18;86671.47;;;-145.17;56.67
32759;BME280;19125;52.360;9.974;2023-05-10T05:25:45;86655.59;;;-145.17;56.74
32759;BME280;19125;52.360;9.974;2023-05-10T05:28:11;86695.28;;;-145.17;57.02
32759;BME280;19125;52.360;9.974;2023-05-10T05:30:38;86687.34;;;-145.17;57.24
32759;BME280;19125;52.360;9.974;2023-05-10T05:33:03;86734.97;;;-145.17;57.28
32759;BME280;19125;52.360;9.974;2023-05-10T05:35:29;86711.16;;;-145.17;57.43
32759;BME280;19125;52.360;9.974;2023-05-10T05:37:54;86695.28;;;-145.17;57.15
32759;BME280;19125;52.360;9.974;2023-05-10T05:40:20;86677.44;;;-145.17;57.02
32759;BME280;19125;52.360;9.974;2023-05-10T05:42:46;86693.31;;;-145.17;57.31
32759;BME280;19125;52.360;9.974;2023-05-10T05:45:11;86711.16;;;-145.17;57.51
32759;BME280;19125;52.360;9.974;2023-05-10T05:47:39;86744.91;;;-145.17;57.96
32759;BME280;19125;52.360;9.974;2023-05-10T05:50:05;86754.84;;;-145.17;57.85
32759;BME280;19125;52.360;9.974;2023-05-10T05:52:30;86742.91;;;-145.17;58.08
32759;BME280;19125;52.360;9.974;2023-05-10T05:54:56;86766.75;;;-145.17;57.99
32759;BME280;19125;52.360;9.974;2023-05-10T05:57:21;86762.78;;;-145.17;58.06
32759;BME280;19125;52.360;9.974;2023-05-10T05:59:47;86756.81;;;-145.17;58.37
32759;BME280;19125;52.360;9.974;2023-05-10T06:02:12;86762.78;;;-145.17;58.70
32759;BME280;19125;52.360;9.974;2023-05-10T06:04:38;86784.59;;;-145.17;58.60
32759;BME280;19125;52.360;9.974;2023-05-10T06:07:03;86838.19;;;-145.17;59.05
32759;BME280;19125;52.360;9.974;2023-05-10T06:09:30;86818.34;;;-145.17;59.21
32759;BME280;19125;52.360;9.974;2023-05-10T06:11:55;86830.25;;;-145.17;59.66
32759;BME280;19125;52.360;9.974;2023-05-10T06:14:36;86909.63;;;-145.17;59.67
32759;BME280;19125;52.360;9.974;2023-05-10T06:17:21;86860.03;;;-145.17;59.94
32759;BME280;19125;52.360;9.974;2023-05-10T06:19:57;86891.78;;;-145.17;60.29
32759;BME280;19125;52.360;9.974;2023-05-10T06:22:25;86883.84;;;-145.17;60.18
32759;BME280;19125;52.360;9.974;2023-05-10T06:24:50;86895.75;;;-145.17;60.49
32759;BME280;19125;52.360;9.974;2023-05-10T06:27:16;86893.75;;;-145.17;60.09
32759;BME280;19125;52.360;9.974;2023-05-10T06:29:41;86875.91;;;-145.17;60.01
32759;BME280;19125;52.360;9.974;2023-05-10T06:32:06;86875.91;;;-145.17;60.23
32759;BME280;19125;52.360;9.974;2023-05-10T06:34:32;86854.06;;;-145.17;60.57
32759;BME280;19125;52.360;9.974;2023-05-10T06:36:57;86875.91;;;-145.17;60.13
32759;BME280;19125;52.360;9.974;2023-05-10T06:39:25;86822.31;;;-145.17;60.39
32759;BME280;19125;52.360;9.974;2023-05-10T06:41:50;86822.31;;;-145.17;60.38
32759;BME280;19125;52.360;9.974;2023-05-10T06:44:17;86826.28;;;-145.17;60.15
32759;BME280;19125;52.360;9.974;2023-05-10T06:46:42;86852.09;;;-145.17;60.43
32759;BME280;19125;52.360;9.974;2023-05-10T06:49:08;86854.06;;;-145.17;60.66
32759;BME280;19125;52.360;9.974;2023-05-10T06:51:33;86917.56;;;-145.17;61.13
32759;BME280;19125;52.360;9.974;2023-05-10T06:53:59;86959.25;;;-145.17;61.11
32759;BME280;19125;52.360;9.974;2023-05-10T06:56:24;86947.34;;;-145.17;61.51
32759;BME280;19125;52.360;9.974;2023-05-10T06:58:49;86951.31;;;-145.17;61.53
32759;BME280;19125;52.360;9.974;2023-05-10T07:01:15;86977.13;;;-145.17;61.70
32759;BME280;19125;52.360;9.974;2023-05-10T07:03:41;86941.38;;;-145.17;61.86
32759;BME280;19125;52.360;9.974;2023-05-10T07:06:07;86996.97;;;-145.17;62.12
32759;BME280;19125;52.360;9.974;2023-05-10T07:08:35;86947.34;;;-145.17;62.42
32759;BME280;19125;52.360;9.974;2023-05-10T07:11:06;86953.31;;;-145.17;62.63
32759;BME280;19125;52.360;9.974;2023-05-10T07:13:34;86913.59;;;-145.17;63.14
32759;BME280;19125;52.360;9.974;2023-05-10T07:16:00;86840.16;;;-145.17;63.19
32759;BME280;19125;52.360;9.974;2023-05-10T07:18:26;86798.50;;;-145.17;63.28
32759;BME280;19125;52.360;9.974;2023-05-10T07:20:51;86782.63;;;-145.17;63.31
32759;BME280;19125;52.360;9.974;2023-05-10T07:23:17;86748.88;;;-145.17;63.34
32759;BME280;19125;52.360;9.974;2023-05-10T07:25:46;86691.31;;;-145.17;63.66
32759;BME280;19125;52.360;9.974;2023-05-10T07:28:13;86615.91;;;-145.17;63.73
32759;BME280;19125;52.360;9.974;2023-05-10T07:30:38;86611.94;;;-145.17;63.52
32759;BME280;19125;52.360;9.974;2023-05-10T07:33:04;86639.72;;;-145.17;63.64
32759;BME280;19125;52.360;9.974;2023-05-10T07:35:29;86697.28;;;-145.17;63.11
32759;BME280;19125;52.360;9.974;2023-05-10T07:37:54;86661.56;;;-145.17;63.02
32759;BME280;19125;52.360;9.974;2023-05-10T07:40:20;86707.19;;;-145.17;63.08
32759;BME280;19125;52.360;9.974;2023-05-10T07:42:45;86693.31;;;-145.17;62.79
32759;BME280;19125;52.360;9.974;2023-05-10T07:45:11;86715.13;;;-145.17;62.82
32759;BME280;19125;52.360;9.974;2023-05-10T07:47:36;86633.78;;;-145.17;62.62
32759;BME280;19125;52.360;9.974;2023-05-10T07:50:03;86703.22;;;-145.17;62.14
32759;BME280;19125;52.360;9.974;2023-05-10T07:52:29;86727.03;;;-145.17;62.02
32759;BME280;19125;52.360;9.974;2023-05-10T07:54:54;86748.88;;;-145.17;62.16
32759;BME280;19125;52.360;9.974;2023-05-10T07:57:21;86826.28;;;-145.17;61.70
32759;BME280;19125;52.360;9.974;2023-05-10T07:59:48;86810.41;;;-145.17;62.10
32759;BME280;19125;52.360;9.974;2023-05-10T08:02:13;86806.44;;;-145.17;62.97
32759;BME280;19125;52.360;9.974;2023-05-10T08:04:39;86695.28;;;-145.17;63.55
32759;BME280;19125;52.360;9.974;2023-05-10T08:07:04;86480.97;;;-145.17;63.98
32759;BME280;19125;52.360;9.974;2023-05-10T08:09:30;86147.56;;;-145.17;64.26
32759;BME280;19125;52.360;9.974;2023-05-10T08:11:55;85500.72;;;-145.17;64.59
32759;BME280;19125;52.360;9.974;2023-05-10T08:14:20;84844.06;;;-145.17;64.86
32759;BME280;19125;52.360;9.974;2023-05-10T08:16:46;84574.28;;;-145.17;64.67
32759;BME280;19125;52.360;9.974;2023-05-10T08:19:11;84425.50;;;-145.17;64.88
32759;BME280;19125;52.360;9.974;2023-05-10T08:21:42;83217.72;;;-145.17;65.27
32759;BME280;19125;52.360;9.974;2023-05-10T08:24:08;82030.16;;;-145.17;65.25
32759;BME280;19125;52.360;9.974;2023-05-10T08:26:33;80341.56;;;-145.17;65.88
32759;BME280;19125;52.360;9.974;2023-05-10T08:28:58;75606.59;;;-145.17;66.37
32759;BME280;19125;52.360;9.974;2023-05-10T08:31:24;69049.06;;;-145.17;66.75
32759;BME280;19125;52.360;9.974;2023-05-10T08:33:49;62243.91;;;-145.17;67.25
32759;BME280;19125;52.360;9.974;2023-05-10T08:36:16;55180.59;;;-145.17;67.73
32759;BME280;19125;52.360;9.974;2023-05-10T08:38:46;50898.28;;;-145.17;67.85
32759;BME280;19125;52.360;9.974;2023-05-10T08:41:12;44609.19;;;-145.17;67.99
32759;BME280;19125;52.360;9.974;2023-05-10T08:43:39;41593.97;;;-145.17;68.02
32759;BME280;19125;52.360;9.974;2023-05-10T08:46:07;39585.13;;;-145.17;68.24
32759;BME280;19125;52.360;9.974;2023-05-10T08:48:34;36322.91;;;-145.17;68.30
32759;BME280;19125;52.360;9.974;2023-05-10T08:51:00;34066.06;;;-145.17;68.73
32759;BME280;19125;52.360;9.974;2023-05-10T08:53:26;32311.59;;;-145.17;68.52
32759;BME280;19125;52.360;9.974;2023-05-10T08:55:55;32311.59;;;-145.17;68.66
32759;BME280;19125;52.360;9.974;2023-05-10T08:58:21;32061.03;;;-145.17;68.32
32759;BME280;19125;52.360;9.974;2023-05-10T09:00:48;33564.69;;;-145.17;68.33
32759;BME280;19125;52.360;9.974;2023-05-10T09:03:13;36072.09;;;-145.17;67.99
32759;BME280;19125;52.360;9.974;2023-05-10T09:05:40;37326.38;;;-145.17;67.81
32759;BME280;19125;52.360;9.974;2023-05-10T09:08:06;42096.34;;;-145.17;67.33
32759;BME280;19125;52.360;9.974;2023-05-10T09:10:33;44106.50;;;-145.17;66.84
32759;BME280;19125;52.360;9.974;2023-05-10T09:12:58;50394.78;;;-145.17;66.21
32759;BME280;19125;52.360;9.974;2023-05-10T09:15:24;59467.53;;;-145.17;65.66
32759;BME280;19125;52.360;9.974;2023-05-10T09:17:50;67877.53;;;-145.17;65.29
32759;BME280;19125;52.360;9.974;2023-05-10T09:20:15;66850.50;;;-145.17;65.73
32759;BME280;19125;52.360;9.974;2023-05-10T09:22:42;63522.31;;;-145.17;65.90
32759;BME280;19125;52.360;9.974;2023-05-10T09:25:10;66941.34;;;-145.17;65.54
32759;BME280;19125;52.360;9.974;2023-05-10T09:27:39;67446.94;;;-145.17;65.51
32759;BME280;19125;52.360;9.974;2023-05-10T09:30:06;68047.41;;;-145.17;65.88
32759;BME280;19125;52.360;9.974;2023-05-10T09:32:40;69114.28;;;-145.17;65.37
32759;BME280;19125;52.360;9.974;2023-05-10T09:35:10;71897.38;;;-145.17;65.19
32759;BME280;19125;52.360;9.974;2023-05-10T09:37:35;73499.34;;;-145.17;65.53
32759;BME280;19125;52.360;9.974;2023-05-10T09:40:04;75159.31;;;-145.17;65.16
32759;BME280;19125;52.360;9.974;2023-05-10T09:42:29;74468.72;;;-145.17;65.45
32759;BME280;19125;52.360;9.974;2023-05-10T09:45:00;75388.88;;;-145.17;65.13
32759;BME280;19125;52.360;9.974;2023-05-10T09:47:25;74502.38;;;-145.17;65.45
32759;BME280;19125;52.360;9.974;2023-05-10T09:49:57;71023.50;;;-145.17;65.90
32759;BME280;19125;52.360;9.974;2023-05-10T09:52:28;68829.75;;;-145.17;66.21
32759;BME280;19125;52.360;9.974;2023-05-10T09:54:54;66384.47;;;-145.17;66.33
32759;BME280;19125;52.360;9.974;2023-05-10T09:57:22;68387.19;;;-145.17;66.09
32759;BME280;19125;52.360;9.974;2023-05-10T09:59:48;73675.41;;;-145.17;65.80
32759;BME280;19125;52.360;9.974;2023-05-10T10:02:14;75458.16;;;-145.17;65.68
32759;BME280;19125;52.360;9.974;2023-05-10T10:04:40;74775.44;;;-145.17;65.77
32759;BME280;19125;52.360;9.974;2023-05-10T10:07:06;74866.44;;;-145.17;65.72
32759;BME280;19125;52.360;9.974;2023-05-10T10:09:33;77536.72;;;-145.17;65.32
32759;BME280;19125;52.360;9.974;2023-05-10T10:11:59;79903.66;;;-145.17;64.76
32759;BME280;19125;52.360;9.974;2023-05-10T10:14:25;80573.41;;;-145.17;64.98
32759;BME280;19125;52.360;9.974;2023-05-10T10:16:51;81952.84;;;-145.17;64.53
32759;BME280;19125;52.360;9.974;2023-05-10T10:19:18;83334.72;;;-145.17;64.06
32759;BME280;19125;52.360;9.974;2023-05-10T10:21:44;84629.81;;;-145.17;63.55
32759;BME280;19125;52.360;9.974;2023-05-10T10:24:10;85258.69;;;-145.17;63.03
32759;BME280;19125;52.360;9.974;2023-05-10T10:26:36;86139.63;;;-145.17;61.59
32759;BME280;19125;52.360;9.974;2023-05-10T10:29:16;86312.28;;;-145.17;61.47
32759;BME280;19125;52.360;9.974;2023-05-10T10:31:47;86469.06;;;-145.17;61.10
32759;BME280;19125;52.360;9.974;2023-05-10T10:34:26;86552.41;;;-145.17;61.00
32759;BME280;19125;52.360;9.974;2023-05-10T10:36:56;86546.44;;;-145.17;61.15
32759;BME280;19125;52.360;9.974;2023-05-10T10:39:22;86560.34;;;-145.17;60.94
32759;BME280;19125;52.360;9.974;2023-05-10T10:41:57;86556.38;;;-145.17;60.95
32759;BME280;19125;52.360;9.974;2023-05-10T10:52:37;86556.38;;;-145.17;59.93
32759;BME280;19125;52.360;9.974;2023-05-10T10:55:04;86544.47;;;-145.17;59.68
32759;BME280;19125;52.360;9.974;2023-05-10T10:57:33;86550.41;;;-145.17;59.28
32759;BME280;19125;52.360;9.974;2023-05-10T11:00:32;86524.63;;;-145.17;58.71
32759;BME280;19125;52.360;9.974;2023-05-10T11:03:05;86461.09;;;-145.17;57.76
32759;BME280;19125;52.360;9.974;2023-05-10T11:10:34;86351.97;;;-145.17;56.11
32759;BME280;19125;52.360;9.974;2023-05-10T11:13:04;86322.19;;;-145.17;56.12
32759;BME280;19125;52.360;9.974;2023-05-10T11:15:37;86304.34;;;-145.17;55.44
32759;BME280;19125;52.360;9.974;2023-05-10T11:18:24;86242.81;;;-145.17;55.31
32759;BME280;19125;52.360;9.974;2023-05-10T11:20:59;86250.75;;;-145.17;55.21
32759;BME280;19125;52.360;9.974;2023-05-10T11:23:32;86201.16;;;-145.17;54.83
32759;BME280;19125;52.360;9.974;2023-05-10T11:26:12;86117.81;;;-145.17;54.42
32759;BME280;19125;52.360;9.974;2023-05-10T11:28:45;86125.75;;;-145.17;53.84
32759;BME280;19125;52.360;9.974;2023-05-10T11:31:19;86048.34;;;-145.17;53.19
32759;BME280;19125;52.360;9.974;2023-05-10T11:33:50;85957.06;;;-145.17;53.08
32759;BME280;19125;52.360;9.974;2023-05-10T11:36:18;85949.13;;;-145.17;52.43
32759;BME280;19125;52.360;9.974;2023-05-10T11:38:44;85933.25;;;-145.17;52.01
32759;BME280;19125;52.360;9.974;2023-05-10T11:41:11;85849.94;;;-145.17;51.33
32759;BME280;19125;52.360;9.974;2023-05-10T11:43:39;85790.41;;;-145.17;50.59
32759;BME280;19125;52.360;9.974;2023-05-10T11:46:06;85764.59;;;-145.17;50.31
32759;BME280;19125;52.360;9.974;2023-05-10T11:48:31;85762.63;;;-145.17;49.45
32759;BME280;19125;52.360;9.974;2023-05-10T11:50:57;85673.34;;;-145.17;49.24
32759;BME280;19125;52.360;9.974;2023-05-10T11:53:24;85572.16;;;-145.17;48.55
32759;BME280;19125;52.360;9.974;2023-05-10T11:55:50;85558.25;;;-145.17;47.70
32759;BME280;19125;52.360;9.974;2023-05-10T11:58:17;85478.91;;;-145.17;47.13
32759;BME280;19125;52.360;9.974;2023-05-10T12:00:43;85498.75;;;-145.17;46.40
32759;BME280;19125;52.360;9.974;2023-05-10T12:03:09;85413.41;;;-145.17;46.00
32759;BME280;19125;52.360;9.974;2023-05-10T12:05:35;85472.94;;;-145.17;45.59
32759;BME280;19125;52.360;9.974;2023-05-10T12:08:14;85461.03;;;-145.17;45.41
32759;BME280;19125;52.360;9.974;2023-05-10T12:10:41;85449.13;;;-145.17;45.14
32759;BME280;19125;52.360;9.974;2023-05-10T12:13:11;85472.94;;;-145.17;45.22
32759;BME280;19125;52.360;9.974;2023-05-10T12:15:38;85383.66;;;-145.17;44.93
32759;BME280;19125;52.360;9.974;2023-05-10T12:18:03;85349.94;;;-145.17;44.41
32759;BME280;19125;52.360;9.974;2023-05-10T12:20:30;85268.59;;;-145.17;43.86
32759;BME280;19125;52.360;9.974;2023-05-10T12:22:57;85254.72;;;-145.17;42.45
32759;BME280;19125;52.360;9.974;2023-05-10T12:25:30;85147.56;;;-145.17;42.18
32759;BME280;19125;52.360;9.974;2023-05-10T12:27:57;85123.78;;;-145.17;41.89
32759;BME280;19125;52.360;9.974;2023-05-10T12:30:27;85103.94;;;-145.17;41.13
32759;BME280;19125;52.360;9.974;2023-05-10T12:32:54;85078.13;;;-145.17;40.30
32759;BME280;19125;52.360;9.974;2023-05-10T12:35:24;85088.06;;;-145.17;40.74
32759;BME280;19125;52.360;9.974;2023-05-10T12:37:50;85080.13;;;-145.17;40.10
32759;BME280;19125;52.360;9.974;2023-05-10T12:40:16;85139.63;;;-145.17;39.71
32759;BME280;19125;52.360;9.974;2023-05-10T12:42:41;85171.38;;;-145.17;40.14
32759;BME280;19125;52.360;9.974;2023-05-10T12:45:07;85131.72;;;-145.17;40.51
32759;BME280;19125;52.360;9.974;2023-05-10T12:47:34;85161.47;;;-145.17;40.59
32759;BME280;19125;52.360;9.974;2023-05-10T12:50:00;85149.56;;;-145.17;40.82
32759;BME280;19125;52.360;9.974;2023-05-10T12:52:26;85159.47;;;-145.17;41.27
32759;BME280;19125;52.360;9.974;2023-05-10T12:54:52;85175.34;;;-145.17;41.00
32759;BME280;19125;52.360;9.974;2023-05-10T12:57:18;85167.41;;;-145.17;41.35
32759;BME280;19125;52.360;9.974;2023-05-10T12:59:43;85139.63;;;-145.17;41.24
32759;BME280;19125;52.360;9.974;2023-05-10T13:02:11;85159.47;;;-145.17;40.75
32759;BME280;19125;52.360;9.974;2023-05-10T13:04:37;85207.09;;;-145.17;41.12
32759;BME280;19125;52.360;9.974;2023-05-10T13:07:08;85167.41;;;-145.17;41.37